Terminal Aerodrome Forecast
Issued by NWS Hastings, NE

Home | Current Version | Previous Version | Text Only | Print | Product List | Glossary On
Versions: 1 2 3 4 5 6 7 8 9 10 11 12 13 14 15 16 17 18 19 20 21 22 23 24 25 26 27 28 29 30 31 32 33 34 35 36 37 38 39 40 41 42
000
FTUS43 KGID 211555 AAB
TAFGRI
TAF AMD
KGRI 211555Z 2116/2212 13014G23KT P6SM OVC008
     FM212100 14011G19KT P6SM VCSH OVC007
     FM220000 12010KT 3SM -FZDZ OVC005
     FM221100 36020G30KT 3SM -SN OVC009=

USA.gov is the U.S. government's official web portal to all federal, state and local government web resources and services.